Aérodrome :
LOGIN :

S'inscrire | Disclaimer

   EN    FR    IT 

 










Légende :    VFR   VFR Marginal   IFR   IFR Intensif   IFR Très Intensif
Visi : 
Plafond : 
>= 8 km
>= 3000ft
5 à 8 km
1000 à 3000 ft
1500m à 5 km
500 à 1000 ft
800 à 1500m
200 à 500 ft
< 800m
< 200 ft
Symboles :   Orages  Brouillard  Fortes neiges  Fortes précipitations  Vent > 20 kt
SIGMETs :   Divers  Orages  Givrage  Turbulence  Onde Orograph.  Cendres Volcan.






- Altitude de l'aérodrome : 443 ft
- Code IATA : SQQ


EYSA - Siauliai

DERNIER METAR :
  • 291350Z 17008KT 9999 FEW020 BKN120 04/00 Q1003 R14L/19//95 R14R/19//95 BLU TEMPO SCT016 BKN030 WHT

METARs EXPIRÉS :
  • 291320Z 18009KT 9999 SCT018 BKN032 04/M00 Q1004 R14L/19//95 R14R/19//95 WHT TEMPO FEW016 BKN026 BLU
  • 291250Z 18010KT 9999 SCT014 BKN022 BKN033 03/M00 Q1004 R14L/19//95 R14R/19//95 GRN TEMPO SCT016 BKN019 WHT
  • 291220Z 19010KT 9999 FEW016 BKN019 OVC024 03/00 Q1004 R14L/19//95 R14R/19//95 WHT TEMPO SCT014 BKN019 GRN
  • 291150Z 20009KT 160V220 9999 FEW014 BKN016 BKN020 03/00 Q1004 R14L/19//95 R14R/19//95 WHT TEMPO SCT014 BKN019 GRN
  • 291120Z 20009KT 180V240 9999 BKN016 03/M00 Q1005 R14L/19//95 R14R/19//95 WHT NOSIG

TAF TAF EYSA
Valide du 29 à 12h jusqu'au 29 à 21h UTC


291100Z 2912/2921 19012KT 9000 BKN020



MET'MAP, la Météo Aéronautique d'un coup d'oeil ! - Copyright ORBIFLY Décembre 2007 - Disclaimer

ORBIFLY MET'MAP TEAM :

Programmation & Développement : Alexandra Zaïnal
Sur une idée originale de : Baudouin d'Aumeries
Assistance à la programmation : Marc-Olivier Méhu
Soutien technique & logistique : Manuel Goepfert

Contact : metmap@orbifly.com




SOURCES & CREDITS :

   NOAA